Time;durP1;ratioP1;P1;durP2;ratioP2;P2;SDS_P1;SDS_P2;PMS_P1;PMS_P2;Temp;Humidity;BMP_temperature;BMP_pressure;BME280_temperature;BME280_humidity;BME280_pressure;Samples;Min_cycle;Max_cycle;Signal;HPM_P1;HPM_P2
2023/06/11 00:00:17;;;;;;;7.22;6.50;;;;;;;;;;5001311;28;20042;-77
2023/06/11 00:02:43;;;;;;;8.32;7.53;;;;;;;;;;5000280;28;20524;-77
2023/06/11 00:05:09;;;;;;;7.32;6.40;;;;;;;;;;4980224;28;20044;-76
2023/06/11 00:07:36;;;;;;;8.50;7.15;;;;;;;;;;4998065;28;20053;-76
2023/06/11 00:10:03;;;;;;;5.70;5.20;;;;;;;;;;4988892;28;20084;-76
2023/06/11 00:12:28;;;;;;;7.18;6.32;;;;;;;;;;4972407;28;20034;-76
2023/06/11 00:14:54;;;;;;;8.23;7.43;;;;;;;;;;4992533;28;20356;-76
2023/06/11 00:17:19;;;;;;;7.75;6.95;;;;;;;;;;4983654;28;20057;-77
2023/06/11 00:19:47;;;;;;;8.63;7.63;;;;;;;;;;4989102;28;20042;-76
2023/06/11 00:22:14;;;;;;;6.53;5.90;;;;;;;;;;4994764;28;20591;-76
2023/06/11 00:24:40;;;;;;;7.47;6.80;;;;;;;;;;4985352;28;20175;-76
2023/06/11 00:27:06;;;;;;;8.38;7.47;;;;;;;;;;4995368;28;20601;-75
2023/06/11 00:29:32;;;;;;;7.90;7.10;;;;;;;;;;4991570;28;20038;-75
2023/06/11 00:31:57;;;;;;;6.65;6.05;;;;;;;;;;4966951;28;20141;-76
2023/06/11 00:34:22;;;;;;;7.72;6.90;;;;;;;;;;4969847;28;20544;-75
2023/06/11 00:36:48;;;;;;;9.23;8.27;;;;;;;;;;5004304;28;20060;-76
2023/06/11 00:39:13;;;;;;;8.48;7.30;;;;;;;;;;4995838;28;20524;-75
2023/06/11 00:41:45;;;;;;;10.25;7.50;;;;;;;;;;4975552;28;20112;-76
2023/06/11 00:44:17;;;;;;;8.45;7.53;;;;;;;;;;4991054;28;20516;-77
2023/06/11 00:46:47;;;;;;;8.75;7.15;;;;;;;;;;4958764;28;20055;-77
2023/06/11 00:49:13;;;;;;;7.77;6.97;;;;;;;;;;4963674;28;20037;-76
2023/06/11 00:51:41;;;;;;;6.20;5.60;;;;;;;;;;4982058;28;20038;-76
2023/06/11 00:54:12;;;;;;;7.30;6.60;;;;;;;;;;4971466;28;20057;-76
2023/06/11 00:56:39;;;;;;;;;;;;;;;;;;4998849;28;20045;-76
2023/06/11 00:59:06;;;;;;;8.13;7.30;;;;;;;;;;4978156;28;19921;-76
2023/06/11 01:01:41;;;;;;;6.93;6.28;;;;;;;;;;4998979;28;20438;-76
2023/06/11 01:04:13;;;;;;;7.55;6.75;;;;;;;;;;4985496;28;20380;-75
2023/06/11 01:06:46;;;;;;;6.82;6.15;;;;;;;;;;4987526;28;20139;-76
2023/06/11 01:09:12;;;;;;;6.10;5.60;;;;;;;;;;4981190;28;20038;-76
2023/06/11 01:11:38;;;;;;;6.32;5.72;;;;;;;;;;4984414;28;20041;-76
2023/06/11 01:14:05;;;;;;;9.48;8.07;;;;;;;;;;4991743;28;20033;-76
2023/06/11 01:16:46;;;;;;;7.47;6.78;;;;;;;;;;4994805;28;20053;-77
2023/06/11 01:19:37;;;;;;;6.53;5.63;;;;;;;;;;4979636;28;20045;-77
2023/06/11 01:22:13;;;;;;;7.43;6.72;;;;;;;;;;4930372;28;20556;-77
2023/06/11 01:24:41;;;;;;;9.00;8.10;;;;;;;;;;4988178;28;20049;-76
2023/06/11 01:27:09;;;;;;;7.22;6.53;;;;;;;;;;4967561;28;20419;-76
2023/06/11 01:29:38;;;;;;;8.68;7.75;;;;;;;;;;4976879;28;20057;-76
2023/06/11 01:32:04;;;;;;;10.68;7.88;;;;;;;;;;4998254;28;20048;-76
2023/06/11 01:34:31;;;;;;;9.15;8.25;;;;;;;;;;4962263;28;20478;-77
2023/06/11 01:36:57;;;;;;;8.15;7.35;;;;;;;;;;4973918;28;20069;-76
2023/06/11 01:39:22;;;;;;;9.32;8.48;;;;;;;;;;4980142;28;20820;-76
2023/06/11 01:41:48;;;;;;;9.10;7.68;;;;;;;;;;4973587;28;20050;-76
2023/06/11 01:44:13;;;;;;;8.85;7.95;;;;;;;;;;4992603;28;20496;-74
2023/06/11 01:46:38;;;;;;;7.38;6.72;;;;;;;;;;4968625;28;20052;-75
2023/06/11 01:49:04;;;;;;;9.43;7.80;;;;;;;;;;4999961;28;20128;-76
2023/06/11 01:51:29;;;;;;;8.00;7.20;;;;;;;;;;4962833;28;20049;-74
2023/06/11 01:53:56;;;;;;;9.88;8.82;;;;;;;;;;4985893;28;20042;-75
2023/06/11 01:56:21;;;;;;;8.70;7.80;;;;;;;;;;4999898;28;20045;-75
2023/06/11 01:58:47;;;;;;;6.10;5.60;;;;;;;;;;4980982;28;20633;-76
2023/06/11 02:01:13;;;;;;;8.50;7.63;;;;;;;;;;4972160;28;20509;-76
2023/06/11 02:03:40;;;;;;;7.70;7.00;;;;;;;;;;4993059;28;20037;-76
2023/06/11 02:06:07;;;;;;;6.65;6.05;;;;;;;;;;4997906;28;20472;-76
2023/06/11 02:08:32;;;;;;;9.30;7.82;;;;;;;;;;4967107;28;20238;-76
2023/06/11 02:10:57;;;;;;;6.72;6.13;;;;;;;;;;4991582;28;20186;-75
2023/06/11 02:13:25;;;;;;;6.47;5.53;;;;;;;;;;5003183;28;20044;-76
2023/06/11 02:15:50;;;;;;;6.82;6.07;;;;;;;;;;4982240;28;20044;-76
2023/06/11 02:18:16;;;;;;;9.82;8.82;;;;;;;;;;5000008;28;20053;-76
2023/06/11 02:20:41;;;;;;;7.85;6.65;;;;;;;;;;4989615;28;20522;-76
2023/06/11 02:23:07;;;;;;;8.88;7.97;;;;;;;;;;4997219;28;20033;-76
2023/06/11 02:25:32;;;;;;;10.00;8.55;;;;;;;;;;4985733;28;20521;-76
2023/06/11 02:27:57;;;;;;;8.45;7.55;;;;;;;;;;4999675;28;20045;-76
2023/06/11 02:30:23;;;;;;;7.22;6.50;;;;;;;;;;4968183;28;20037;-76
2023/06/11 02:32:48;;;;;;;8.77;7.85;;;;;;;;;;4989291;28;20532;-76
2023/06/11 02:35:13;;;;;;;6.28;5.68;;;;;;;;;;5006709;28;20103;-76
2023/06/11 02:37:39;;;;;;;9.05;8.15;;;;;;;;;;5006788;28;20048;-76
2023/06/11 02:40:05;;;;;;;11.57;8.45;;;;;;;;;;5006574;28;20056;-77
2023/06/11 02:42:30;;;;;;;8.82;7.68;;;;;;;;;;4993456;28;20124;-77
2023/06/11 02:44:56;;;;;;;10.43;8.68;;;;;;;;;;4989643;28;20115;-76
2023/06/11 02:47:21;;;;;;;11.50;8.80;;;;;;;;;;5002505;28;20049;-76
2023/06/11 02:49:46;;;;;;;9.73;7.03;;;;;;;;;;5004877;28;20543;-77
2023/06/11 02:52:12;;;;;;;5.70;5.20;;;;;;;;;;5004351;28;20061;-75
2023/06/11 02:54:37;;;;;;;9.82;7.50;;;;;;;;;;4998236;28;20042;-77
2023/06/11 02:57:03;;;;;;;5.57;5.07;;;;;;;;;;4993456;28;20049;-77
2023/06/11 02:59:28;;;;;;;7.43;6.00;;;;;;;;;;4967539;28;20055;-77
2023/06/11 03:01:54;;;;;;;7.07;6.30;;;;;;;;;;4991242;28;20524;-77
2023/06/11 03:04:20;;;;;;;11.38;8.00;;;;;;;;;;4990509;28;20065;-77
2023/06/11 03:06:45;;;;;;;6.95;6.25;;;;;;;;;;4988540;28;20045;-76
2023/06/11 03:09:11;;;;;;;6.88;6.10;;;;;;;;;;4982774;28;20115;-77
2023/06/11 03:11:36;;;;;;;6.03;5.43;;;;;;;;;;4977155;28;20049;-76
2023/06/11 03:14:01;;;;;;;12.35;9.95;;;;;;;;;;4976559;28;20088;-77
2023/06/11 03:16:27;;;;;;;6.50;5.90;;;;;;;;;;4991854;28;20049;-77
2023/06/11 03:18:52;;;;;;;7.07;6.47;;;;;;;;;;4995748;28;20107;-75
2023/06/11 03:21:18;;;;;;;7.40;6.70;;;;;;;;;;4992915;28;20052;-76
2023/06/11 03:23:43;;;;;;;7.10;5.38;;;;;;;;;;4989041;28;20151;-76
2023/06/11 03:26:08;;;;;;;9.82;8.75;;;;;;;;;;4982437;28;20147;-76
2023/06/11 03:28:34;;;;;;;5.25;4.75;;;;;;;;;;4982353;28;20506;-77
2023/06/11 03:30:59;;;;;;;7.63;6.43;;;;;;;;;;4993198;28;20041;-76
2023/06/11 03:33:25;;;;;;;6.40;5.82;;;;;;;;;;4999719;28;20165;-77
2023/06/11 03:35:50;;;;;;;7.88;7.07;;;;;;;;;;4990548;28;20072;-76
2023/06/11 03:38:15;;;;;;;8.13;7.30;;;;;;;;;;5008233;28;20071;-76
2023/06/11 03:40:41;;;;;;;8.30;7.15;;;;;;;;;;4970775;28;20049;-76
2023/06/11 03:43:06;;;;;;;6.60;6.00;;;;;;;;;;4990314;28;20041;-76
2023/06/11 03:45:32;;;;;;;9.27;7.93;;;;;;;;;;4980005;28;20125;-76
2023/06/11 03:47:58;;;;;;;6.53;5.60;;;;;;;;;;4975173;23;20053;-77
2023/06/11 03:50:23;;;;;;;10.27;8.00;;;;;;;;;;4975523;28;20563;-74
2023/06/11 03:52:48;;;;;;;8.55;7.30;;;;;;;;;;4999280;28;20567;-75
2023/06/11 03:55:14;;;;;;;9.63;8.63;;;;;;;;;;4967358;28;20393;-75
2023/06/11 03:57:41;;;;;;;5.95;5.38;;;;;;;;;;4984508;28;20033;-75
2023/06/11 04:00:07;;;;;;;10.27;7.80;;;;;;;;;;4984878;28;20425;-75
2023/06/11 04:02:34;;;;;;;7.18;6.47;;;;;;;;;;4984999;28;20060;-75
2023/06/11 04:05:00;;;;;;;6.85;6.25;;;;;;;;;;4985387;28;20041;-75
2023/06/11 04:07:26;;;;;;;11.27;8.80;;;;;;;;;;5000504;28;20178;-75
2023/06/11 04:09:51;;;;;;;9.27;8.18;;;;;;;;;;4983522;28;20065;-75
2023/06/11 04:12:17;;;;;;;9.65;8.68;;;;;;;;;;5003971;28;20120;-74
2023/06/11 04:14:42;;;;;;;8.32;7.53;;;;;;;;;;4995809;28;20030;-75
2023/06/11 04:17:08;;;;;;;6.97;5.97;;;;;;;;;;4978423;28;21635;-75
2023/06/11 04:19:33;;;;;;;6.63;6.00;;;;;;;;;;4987999;28;20037;-75
2023/06/11 04:21:58;;;;;;;6.53;5.80;;;;;;;;;;5000833;28;20045;-75
2023/06/11 04:24:24;;;;;;;8.40;7.50;;;;;;;;;;4988406;28;20034;-75
2023/06/11 04:26:51;;;;;;;10.52;9.43;;;;;;;;;;5003803;28;20038;-75
2023/06/11 04:29:18;;;;;;;8.15;7.32;;;;;;;;;;5001889;28;20038;-75
2023/06/11 04:31:47;;;;;;;9.02;6.80;;;;;;;;;;5004025;28;20049;-74
2023/06/11 04:34:13;;;;;;;10.07;9.05;;;;;;;;;;4987444;28;20043;-74
2023/06/11 04:36:40;;;;;;;8.38;7.57;;;;;;;;;;4983130;28;20130;-74
2023/06/11 04:39:06;;;;;;;10.75;9.38;;;;;;;;;;5002440;28;20472;-74
2023/06/11 04:41:32;;;;;;;14.63;9.68;;;;;;;;;;5003334;28;20420;-74
2023/06/11 04:44:00;;;;;;;11.52;9.18;;;;;;;;;;5004168;28;20049;-74
2023/06/11 04:46:26;;;;;;;12.27;10.77;;;;;;;;;;5003369;28;20029;-74
2023/06/11 04:48:53;;;;;;;11.43;10.20;;;;;;;;;;5000482;28;20045;-74
2023/06/11 04:51:20;;;;;;;10.30;9.23;;;;;;;;;;4982567;28;20046;-75
2023/06/11 04:53:45;;;;;;;10.57;9.43;;;;;;;;;;5002511;28;20421;-75
2023/06/11 04:56:11;;;;;;;12.70;9.98;;;;;;;;;;4986980;28;20033;-74
2023/06/11 04:58:36;;;;;;;13.90;10.45;;;;;;;;;;5001697;28;20049;-74
2023/06/11 05:01:05;;;;;;;9.57;7.65;;;;;;;;;;5001837;28;20657;-75
2023/06/11 05:03:36;;;;;;;14.55;10.27;;;;;;;;;;4967565;28;20350;-74
2023/06/11 05:06:03;;;;;;;13.27;10.63;;;;;;;;;;4998900;28;20121;-74
2023/06/11 05:08:29;;;;;;;12.35;10.18;;;;;;;;;;4975046;28;20033;-74
2023/06/11 05:10:56;;;;;;;11.07;9.43;;;;;;;;;;5002760;28;20033;-73
2023/06/11 05:13:25;;;;;;;8.73;7.80;;;;;;;;;;4974862;28;20096;-73
2023/06/11 05:15:57;;;;;;;13.40;10.45;;;;;;;;;;4977462;28;20046;-73
2023/06/11 05:18:25;;;;;;;10.95;9.27;;;;;;;;;;4972076;28;20042;-72
2023/06/11 05:20:51;;;;;;;12.15;10.55;;;;;;;;;;4966198;28;20044;-73
2023/06/11 05:23:17;;;;;;;10.95;9.85;;;;;;;;;;4982602;28;20030;-73
2023/06/11 05:25:50;;;;;;;12.48;10.50;;;;;;;;;;4981537;28;20069;-73
2023/06/11 05:28:16;;;;;;;11.32;9.77;;;;;;;;;;4980025;28;20494;-74
2023/06/11 05:30:45;;;;;;;14.40;10.95;;;;;;;;;;4964615;28;20128;-74
2023/06/11 05:33:11;;;;;;;10.43;7.82;;;;;;;;;;5002054;28;20053;-74
2023/06/11 05:35:38;;;;;;;13.35;9.70;;;;;;;;;;4994374;28;20041;-74
2023/06/11 05:38:06;;;;;;;11.93;9.73;;;;;;;;;;4982492;28;20584;-74
2023/06/11 05:40:32;;;;;;;10.50;8.80;;;;;;;;;;4982857;28;20046;-74
2023/06/11 05:42:57;;;;;;;11.30;9.80;;;;;;;;;;4931857;28;20045;-74
2023/06/11 05:45:24;;;;;;;11.30;9.27;;;;;;;;;;4998093;28;20052;-74
2023/06/11 05:47:49;;;;;;;10.88;9.07;;;;;;;;;;4981432;28;21058;-75
2023/06/11 05:50:15;;;;;;;10.20;9.10;;;;;;;;;;4975369;28;20042;-73
2023/06/11 05:52:40;;;;;;;13.60;9.55;;;;;;;;;;5002090;28;20071;-74
2023/06/11 05:55:06;;;;;;;11.02;9.25;;;;;;;;;;4988835;28;20037;-74
2023/06/11 05:57:32;;;;;;;11.30;9.70;;;;;;;;;;4979557;28;20038;-72
2023/06/11 05:59:57;;;;;;;11.98;9.30;;;;;;;;;;4986584;28;20045;-73
2023/06/11 06:02:23;;;;;;;10.02;7.75;;;;;;;;;;5000218;28;20360;-73
2023/06/11 06:04:49;;;;;;;10.25;8.73;;;;;;;;;;4997343;28;20959;-73
2023/06/11 06:07:15;;;;;;;13.40;9.70;;;;;;;;;;4998391;28;20170;-73
2023/06/11 06:09:40;;;;;;;11.65;9.13;;;;;;;;;;4989040;28;20041;-74
2023/06/11 06:12:06;;;;;;;9.27;8.32;;;;;;;;;;4967110;28;20041;-74
2023/06/11 06:14:32;;;;;;;12.48;9.20;;;;;;;;;;4985623;28;20497;-75
2023/06/11 06:16:58;;;;;;;13.45;9.88;;;;;;;;;;5000348;28;20088;-74
2023/06/11 06:19:23;;;;;;;10.13;8.80;;;;;;;;;;4996270;28;20041;-75
2023/06/11 06:21:49;;;;;;;8.65;7.75;;;;;;;;;;4991995;28;20840;-74
2023/06/11 06:24:14;;;;;;;11.32;8.93;;;;;;;;;;4986568;28;20119;-74
2023/06/11 06:26:40;;;;;;;12.23;9.20;;;;;;;;;;4965909;28;20042;-73
2023/06/11 06:29:09;;;;;;;13.35;9.30;;;;;;;;;;4986352;28;20517;-73
2023/06/11 06:31:36;;;;;;;12.43;8.82;;;;;;;;;;4986686;28;20042;-73
2023/06/11 06:34:02;;;;;;;11.85;9.05;;;;;;;;;;4970479;28;20188;-73
2023/06/11 06:36:27;;;;;;;8.93;8.02;;;;;;;;;;5000245;28;20146;-74
2023/06/11 06:38:53;;;;;;;9.82;8.15;;;;;;;;;;4976593;28;20033;-75
2023/06/11 06:41:19;;;;;;;8.88;7.97;;;;;;;;;;4982038;28;20178;-74
2023/06/11 06:43:44;;;;;;;10.20;7.72;;;;;;;;;;4986461;28;20563;-74
2023/06/11 06:46:10;;;;;;;9.27;7.68;;;;;;;;;;4986375;28;20453;-74
2023/06/11 06:48:35;;;;;;;10.30;8.00;;;;;;;;;;4986365;28;20038;-74
2023/06/11 06:51:00;;;;;;;10.65;7.70;;;;;;;;;;4969209;28;20581;-74
2023/06/11 06:53:26;;;;;;;7.60;5.95;;;;;;;;;;4965389;28;20038;-74
2023/06/11 06:55:52;;;;;;;8.93;7.45;;;;;;;;;;4984934;28;20049;-73
2023/06/11 06:58:17;;;;;;;9.38;7.60;;;;;;;;;;4985369;28;20034;-74
2023/06/11 07:00:45;;;;;;;8.68;6.75;;;;;;;;;;4986776;28;20101;-74
2023/06/11 07:03:12;;;;;;;8.68;7.07;;;;;;;;;;4984465;28;20042;-74
2023/06/11 07:05:37;;;;;;;9.40;7.05;;;;;;;;;;4985748;28;20116;-74
2023/06/11 07:08:03;;;;;;;8.63;7.38;;;;;;;;;;4966027;28;20049;-74
2023/06/11 07:10:30;;;;;;;9.40;6.68;;;;;;;;;;4989494;28;20065;-73
2023/06/11 07:12:55;;;;;;;10.32;7.03;;;;;;;;;;4997274;28;20033;-73
2023/06/11 07:15:20;;;;;;;8.70;7.13;;;;;;;;;;4985295;28;20148;-73
2023/06/11 07:17:46;;;;;;;11.65;7.25;;;;;;;;;;4986413;28;20038;-73
2023/06/11 07:20:12;;;;;;;8.18;7.32;;;;;;;;;;4985735;28;20103;-73
2023/06/11 07:22:37;;;;;;;7.95;6.97;;;;;;;;;;4966235;28;20030;-73
2023/06/11 07:25:03;;;;;;;7.50;6.72;;;;;;;;;;4983998;28;20398;-73
2023/06/11 07:27:28;;;;;;;7.70;6.95;;;;;;;;;;4993115;28;20152;-73
2023/06/11 07:29:54;;;;;;;7.50;6.68;;;;;;;;;;4978953;28;20041;-73
2023/06/11 07:32:19;;;;;;;9.80;6.93;;;;;;;;;;4986852;28;20049;-73
2023/06/11 07:34:44;;;;;;;8.20;6.07;;;;;;;;;;5001162;28;20095;-73
2023/06/11 07:37:10;;;;;;;8.45;7.43;;;;;;;;;;4981399;28;20169;-73
2023/06/11 07:39:35;;;;;;;7.30;5.22;;;;;;;;;;5003599;28;20046;-73
2023/06/11 07:42:04;;;;;;;8.18;7.38;;;;;;;;;;4983968;28;20060;-73
2023/06/11 07:44:30;;;;;;;8.25;6.88;;;;;;;;;;4988843;28;20421;-74
2023/06/11 07:46:55;;;;;;;7.63;6.82;;;;;;;;;;4983865;28;20533;-74
2023/06/11 07:49:20;;;;;;;7.03;6.32;;;;;;;;;;4996715;28;20067;-74
2023/06/11 07:51:46;;;;;;;7.55;6.65;;;;;;;;;;4991310;28;20049;-74
2023/06/11 07:54:12;;;;;;;7.78;6.25;;;;;;;;;;5004106;28;20453;-74
2023/06/11 07:56:37;;;;;;;9.48;6.60;;;;;;;;;;5004148;28;20037;-73
2023/06/11 07:59:03;;;;;;;9.32;7.68;;;;;;;;;;4999369;28;20361;-74
2023/06/11 08:01:28;;;;;;;10.73;6.25;;;;;;;;;;4989771;28;20130;-74
2023/06/11 08:03:54;;;;;;;7.10;6.40;;;;;;;;;;4966153;28;20041;-73
2023/06/11 08:06:20;;;;;;;7.53;6.68;;;;;;;;;;5002053;28;20045;-74
2023/06/11 08:08:47;;;;;;;11.63;6.43;;;;;;;;;;4986717;28;20520;-74
2023/06/11 08:11:13;;;;;;;9.82;6.60;;;;;;;;;;5003867;28;20104;-74
2023/06/11 08:13:40;;;;;;;7.82;6.43;;;;;;;;;;4997653;28;20443;-76
2023/06/11 08:16:07;;;;;;;8.60;6.60;;;;;;;;;;4970777;28;20049;-73
2023/06/11 08:18:32;;;;;;;7.50;6.00;;;;;;;;;;4950551;28;20046;-74
2023/06/11 08:20:58;;;;;;;8.43;6.45;;;;;;;;;;5002506;28;20111;-74
2023/06/11 08:23:24;;;;;;;8.88;6.70;;;;;;;;;;4996316;28;20065;-74
2023/06/11 08:25:49;;;;;;;8.32;5.65;;;;;;;;;;4985214;28;20132;-73
2023/06/11 08:28:15;;;;;;;6.75;6.05;;;;;;;;;;4983752;28;20061;-73
2023/06/11 08:30:41;;;;;;;8.40;6.13;;;;;;;;;;4983895;28;20056;-74
2023/06/11 08:33:06;;;;;;;6.65;5.93;;;;;;;;;;4965414;28;20494;-73
2023/06/11 08:35:32;;;;;;;8.20;6.07;;;;;;;;;;4985407;28;20081;-74
2023/06/11 08:37:57;;;;;;;5.45;4.80;;;;;;;;;;4971848;28;20813;-73
2023/06/11 08:40:23;;;;;;;5.72;5.22;;;;;;;;;;4993502;28;20048;-74
2023/06/11 08:42:50;;;;;;;8.38;5.10;;;;;;;;;;4995385;28;20045;-74
2023/06/11 08:45:16;;;;;;;5.95;5.25;;;;;;;;;;4986286;28;20041;-74
2023/06/11 08:47:52;;;;;;;6.30;5.13;;;;;;;;;;4951451;28;20720;-74
2023/06/11 08:50:21;;;;;;;6.20;4.97;;;;;;;;;;4985604;28;20346;-73
2023/06/11 08:52:53;;;;;;;5.75;4.70;;;;;;;;;;4991989;28;20041;-73
2023/06/11 08:55:18;;;;;;;5.53;4.93;;;;;;;;;;4988073;28;20117;-73
2023/06/11 08:57:44;;;;;;;5.80;4.70;;;;;;;;;;4986711;28;20121;-74
2023/06/11 09:00:10;;;;;;;5.60;4.30;;;;;;;;;;4974467;28;20049;-74
2023/06/11 09:02:36;;;;;;;5.22;3.67;;;;;;;;;;4987784;28;20108;-74
2023/06/11 09:05:04;;;;;;;6.38;4.68;;;;;;;;;;4993582;28;20034;-74
2023/06/11 09:07:32;;;;;;;6.90;4.53;;;;;;;;;;4984963;28;20053;-74
2023/06/11 09:10:09;;;;;;;6.68;4.70;;;;;;;;;;4985230;28;20126;-74
2023/06/11 09:12:35;;;;;;;5.22;4.53;;;;;;;;;;4965370;28;20127;-74
2023/06/11 09:15:03;;;;;;;6.25;4.57;;;;;;;;;;4972392;28;20042;-73
2023/06/11 09:17:38;;;;;;;4.80;4.32;;;;;;;;;;5002746;28;20088;-73
2023/06/11 09:20:09;;;;;;;6.00;4.28;;;;;;;;;;4994371;28;20041;-73
2023/06/11 09:22:36;;;;;;;6.60;4.38;;;;;;;;;;4973297;28;20049;-73
2023/06/11 09:25:05;;;;;;;4.30;3.90;;;;;;;;;;4964498;28;20050;-74
2023/06/11 09:27:31;;;;;;;4.57;4.00;;;;;;;;;;4972743;28;20057;-74
2023/06/11 09:29:56;;;;;;;6.20;4.45;;;;;;;;;;4994205;28;20057;-74
2023/06/11 09:32:25;;;;;;;5.30;3.83;;;;;;;;;;4982225;28;20034;-74
2023/06/11 09:34:50;;;;;;;4.03;3.50;;;;;;;;;;4984401;28;20041;-74
2023/06/11 09:37:16;;;;;;;4.20;3.80;;;;;;;;;;4951195;28;20030;-74
2023/06/11 09:39:42;;;;;;;4.95;3.38;;;;;;;;;;4986644;28;20042;-74
2023/06/11 09:42:21;;;;;;;4.50;3.85;;;;;;;;;;4988800;28;20042;-74
2023/06/11 09:44:46;;;;;;;6.78;3.42;;;;;;;;;;4988528;28;20525;-74
2023/06/11 09:47:12;;;;;;;6.38;3.75;;;;;;;;;;4985935;28;20100;-74
2023/06/11 09:49:39;;;;;;;4.30;3.38;;;;;;;;;;5038220;22;20111;-77
2023/06/11 09:52:05;;;;;;;5.30;3.38;;;;;;;;;;5001824;28;20048;-78
2023/06/11 09:54:31;;;;;;;5.97;3.28;;;;;;;;;;5003584;28;20118;-77
2023/06/11 09:56:57;;;;;;;4.57;3.22;;;;;;;;;;5021858;28;20098;-77
2023/06/11 09:59:23;;;;;;;5.53;3.92;;;;;;;;;;5002037;28;20045;-77
2023/06/11 10:01:50;;;;;;;4.95;3.40;;;;;;;;;;5004304;28;20034;-77
2023/06/11 10:04:15;;;;;;;3.97;3.58;;;;;;;;;;4991000;28;20060;-78
2023/06/11 10:06:45;;;;;;;5.13;3.50;;;;;;;;;;5011880;28;20053;-77
2023/06/11 10:09:14;;;;;;;4.00;3.40;;;;;;;;;;5013432;28;20037;-79
2023/06/11 10:11:40;;;;;;;5.30;3.72;;;;;;;;;;4995159;28;20037;-79
2023/06/11 10:14:12;;;;;;;3.50;3.20;;;;;;;;;;5009438;28;20108;-77
2023/06/11 10:16:37;;;;;;;3.70;3.10;;;;;;;;;;4991612;28;20520;-77
2023/06/11 10:19:07;;;;;;;3.65;3.33;;;;;;;;;;5007481;28;20096;-78
2023/06/11 10:21:36;;;;;;;3.17;2.88;;;;;;;;;;5008829;28;20068;-77
2023/06/11 10:24:02;;;;;;;6.80;3.13;;;;;;;;;;5009686;28;20065;-78
2023/06/11 10:26:35;;;;;;;3.72;3.03;;;;;;;;;;5008314;28;20306;-77
2023/06/11 10:29:01;;;;;;;3.50;3.20;;;;;;;;;;4996855;28;20704;-77
2023/06/11 10:31:39;;;;;;;6.07;3.30;;;;;;;;;;5008707;28;20045;-78
2023/06/11 10:34:05;;;;;;;4.63;3.80;;;;;;;;;;4984264;28;20097;-78
2023/06/11 10:36:35;;;;;;;3.97;3.58;;;;;;;;;;5007892;28;20041;-79
2023/06/11 10:39:22;;;;;;;4.65;3.60;;;;;;;;;;4989638;28;20045;-78
2023/06/11 10:42:01;;;;;;;3.83;3.50;;;;;;;;;;4982705;28;20529;-77
2023/06/11 10:44:29;;;;;;;7.37;3.50;;;;;;;;;;4963537;28;20042;-79
2023/06/11 10:46:55;;;;;;;4.85;3.47;;;;;;;;;;5001156;28;20047;-77
2023/06/11 10:49:26;;;;;;;5.70;3.70;;;;;;;;;;5007214;28;20038;-78
2023/06/11 10:51:52;;;;;;;4.78;3.65;;;;;;;;;;5001516;28;20034;-78
2023/06/11 10:54:32;;;;;;;3.60;3.25;;;;;;;;;;5013093;28;20037;-78
2023/06/11 10:57:00;;;;;;;4.30;3.60;;;;;;;;;;4981033;28;20473;-77
2023/06/11 10:59:25;;;;;;;5.05;3.17;;;;;;;;;;5009356;28;20119;-77
2023/06/11 11:01:55;;;;;;;4.00;3.60;;;;;;;;;;5013083;28;20228;-77
2023/06/11 11:04:21;;;;;;;4.15;3.20;;;;;;;;;;4998530;28;20032;-77
2023/06/11 11:06:48;;;;;;;5.28;3.25;;;;;;;;;;5006899;28;21591;-78
2023/06/11 11:09:21;;;;;;;3.50;3.20;;;;;;;;;;4997662;28;20150;-77
2023/06/11 11:11:47;;;;;;;3.53;3.22;;;;;;;;;;5010942;28;20041;-77
2023/06/11 11:14:16;;;;;;;4.10;3.63;;;;;;;;;;5007649;28;20052;-76
2023/06/11 11:16:42;;;;;;;4.07;3.53;;;;;;;;;;5000401;28;20041;-78
2023/06/11 11:19:07;;;;;;;4.93;3.60;;;;;;;;;;5009453;28;20441;-77
2023/06/11 11:21:33;;;;;;;4.00;3.60;;;;;;;;;;4999098;28;20042;-79
2023/06/11 11:23:59;;;;;;;5.03;3.70;;;;;;;;;;5008769;28;21680;-77
2023/06/11 11:26:26;;;;;;;3.88;3.50;;;;;;;;;;4989260;28;20093;-77
2023/06/11 11:28:51;;;;;;;4.50;3.80;;;;;;;;;;5007092;28;20038;-77
2023/06/11 11:31:21;;;;;;;5.28;3.97;;;;;;;;;;5001994;28;20039;-78
2023/06/11 11:33:50;;;;;;;6.90;3.53;;;;;;;;;;5010348;28;20048;-77
2023/06/11 11:36:15;;;;;;;4.07;3.67;;;;;;;;;;5000048;28;20597;-78
2023/06/11 11:38:41;;;;;;;4.88;3.65;;;;;;;;;;5004553;28;20132;-77
2023/06/11 11:41:10;;;;;;;4.40;3.60;;;;;;;;;;5011212;28;20116;-78
2023/06/11 11:43:42;;;;;;;5.72;3.50;;;;;;;;;;5003695;28;20971;-77
2023/06/11 11:46:18;;;;;;;5.43;3.63;;;;;;;;;;4976750;28;20117;-77
2023/06/11 11:48:44;;;;;;;6.28;3.78;;;;;;;;;;4986344;28;20561;-77
2023/06/11 11:51:13;;;;;;;8.15;4.20;;;;;;;;;;5008040;28;20091;-77
2023/06/11 11:53:39;;;;;;;4.43;3.40;;;;;;;;;;5010105;28;20033;-77
2023/06/11 11:56:05;;;;;;;3.83;3.53;;;;;;;;;;5011873;28;20877;-77
2023/06/11 11:58:40;;;;;;;4.95;3.40;;;;;;;;;;4996173;28;20041;-77
2023/06/11 12:01:09;;;;;;;4.32;3.80;;;;;;;;;;4997014;28;20044;-78
2023/06/11 12:03:36;;;;;;;5.18;3.58;;;;;;;;;;5008875;28;20042;-78
2023/06/11 12:06:06;;;;;;;4.55;4.10;;;;;;;;;;4995718;28;20033;-77
2023/06/11 12:08:32;;;;;;;3.75;3.40;;;;;;;;;;5008581;28;20038;-78
2023/06/11 12:10:59;;;;;;;4.07;3.67;;;;;;;;;;4994348;28;20041;-77
2023/06/11 12:13:25;;;;;;;3.90;3.58;;;;;;;;;;4998407;28;20413;-77
2023/06/11 12:15:50;;;;;;;4.18;3.78;;;;;;;;;;5008127;28;20048;-77
2023/06/11 12:18:16;;;;;;;4.10;3.72;;;;;;;;;;5005289;28;20498;-76
2023/06/11 12:20:41;;;;;;;5.00;3.70;;;;;;;;;;5005819;28;20579;-78
2023/06/11 12:23:07;;;;;;;4.25;3.85;;;;;;;;;;5001530;28;20124;-77
2023/06/11 12:25:33;;;;;;;3.88;3.53;;;;;;;;;;5005437;28;20136;-78
2023/06/11 12:27:59;;;;;;;5.65;4.00;;;;;;;;;;4997469;28;20155;-77
2023/06/11 12:30:26;;;;;;;4.40;3.50;;;;;;;;;;5005600;28;20092;-78
2023/06/11 12:32:52;;;;;;;4.28;3.30;;;;;;;;;;5004995;28;20831;-77
2023/06/11 12:35:18;;;;;;;5.07;3.50;;;;;;;;;;5005502;28;20041;-77
2023/06/11 12:37:45;;;;;;;4.78;3.80;;;;;;;;;;4999816;28;20116;-78
2023/06/11 12:40:11;;;;;;;4.55;3.80;;;;;;;;;;5012516;28;20036;-78
2023/06/11 12:42:37;;;;;;;3.80;3.50;;;;;;;;;;4994842;28;20484;-78
2023/06/11 12:45:03;;;;;;;5.95;3.70;;;;;;;;;;5009808;28;20034;-78
2023/06/11 12:47:28;;;;;;;5.40;3.67;;;;;;;;;;5004972;28;20038;-77
2023/06/11 12:49:54;;;;;;;6.22;3.45;;;;;;;;;;5010472;28;20536;-78
2023/06/11 12:52:20;;;;;;;4.15;3.58;;;;;;;;;;4979194;28;20043;-78
2023/06/11 12:54:45;;;;;;;4.90;3.95;;;;;;;;;;4994621;28;20049;-77
2023/06/11 12:57:15;;;;;;;3.95;3.58;;;;;;;;;;5007943;28;20477;-78
2023/06/11 12:59:40;;;;;;;4.60;3.60;;;;;;;;;;5007570;28;20065;-77
2023/06/11 13:02:06;;;;;;;4.93;3.55;;;;;;;;;;5010057;28;20114;-77
2023/06/11 13:04:32;;;;;;;5.30;3.80;;;;;;;;;;4999880;28;20041;-78
2023/06/11 13:06:57;;;;;;;4.93;3.50;;;;;;;;;;5003571;28;20428;-78
2023/06/11 13:09:24;;;;;;;4.20;3.72;;;;;;;;;;5000264;28;20097;-77
2023/06/11 13:11:50;;;;;;;4.68;3.83;;;;;;;;;;5008848;28;20037;-78
2023/06/11 13:14:15;;;;;;;6.60;4.07;;;;;;;;;;5006407;28;20033;-77
2023/06/11 13:16:41;;;;;;;4.05;3.50;;;;;;;;;;5004515;28;20037;-77
2023/06/11 13:19:06;;;;;;;4.55;3.92;;;;;;;;;;4995282;28;20443;-78
2023/06/11 13:21:32;;;;;;;3.90;3.50;;;;;;;;;;5005014;28;20042;-77
2023/06/11 13:23:57;;;;;;;5.07;4.00;;;;;;;;;;4997062;28;20588;-78
2023/06/11 13:26:23;;;;;;;4.10;3.70;;;;;;;;;;5005075;28;20064;-77
2023/06/11 13:28:50;;;;;;;4.22;3.83;;;;;;;;;;5006907;28;20033;-78
2023/06/11 13:31:15;;;;;;;5.70;3.78;;;;;;;;;;5009901;28;20045;-79
2023/06/11 13:33:41;;;;;;;4.43;3.83;;;;;;;;;;4994744;28;20041;-77
2023/06/11 13:36:06;;;;;;;4.43;3.65;;;;;;;;;;5007926;28;20044;-78
2023/06/11 13:38:32;;;;;;;7.05;3.70;;;;;;;;;;4997110;28;20692;-78
2023/06/11 13:40:58;;;;;;;5.10;3.53;;;;;;;;;;5004487;28;20037;-77
2023/06/11 13:43:23;;;;;;;3.50;3.20;;;;;;;;;;5005050;28;20689;-78
2023/06/11 13:45:49;;;;;;;3.75;3.45;;;;;;;;;;5008555;28;20484;-78
2023/06/11 13:48:18;;;;;;;3.30;3.00;;;;;;;;;;4996280;28;20128;-78
2023/06/11 13:50:44;;;;;;;4.00;3.40;;;;;;;;;;4993471;28;20124;-78
2023/06/11 13:53:11;;;;;;;3.38;3.05;;;;;;;;;;5000720;28;20453;-77
2023/06/11 13:55:37;;;;;;;3.40;3.13;;;;;;;;;;4999430;28;20041;-78
2023/06/11 13:58:03;;;;;;;5.07;3.65;;;;;;;;;;5004016;28;20040;-77
2023/06/11 14:00:28;;;;;;;3.63;3.13;;;;;;;;;;4999500;28;20128;-77
2023/06/11 14:02:54;;;;;;;3.67;3.38;;;;;;;;;;5002284;28;20160;-77
2023/06/11 14:05:19;;;;;;;4.68;3.42;;;;;;;;;;4982120;28;20506;-77
2023/06/11 14:07:45;;;;;;;3.90;3.50;;;;;;;;;;4993328;28;20034;-78
2023/06/11 14:10:10;;;;;;;4.32;3.92;;;;;;;;;;5003898;28;20117;-77
2023/06/11 14:12:36;;;;;;;4.03;3.63;;;;;;;;;;5003741;28;20073;-78
2023/06/11 14:15:01;;;;;;;4.72;3.78;;;;;;;;;;4993571;28;20037;-77
2023/06/11 14:17:28;;;;;;;5.57;3.67;;;;;;;;;;4992235;28;20572;-77
2023/06/11 14:19:54;;;;;;;3.80;3.40;;;;;;;;;;4993555;28;20041;-78
2023/06/11 14:22:20;;;;;;;4.30;3.85;;;;;;;;;;4996911;28;20065;-77
2023/06/11 14:24:46;;;;;;;4.93;4.03;;;;;;;;;;5000097;28;20029;-77
2023/06/11 14:27:11;;;;;;;5.03;3.50;;;;;;;;;;5008744;28;20107;-77
2023/06/11 14:29:38;;;;;;;3.80;3.50;;;;;;;;;;5000073;28;20040;-77
2023/06/11 14:32:05;;;;;;;4.75;3.60;;;;;;;;;;4987070;28;20125;-78
2023/06/11 14:34:31;;;;;;;4.40;4.00;;;;;;;;;;5007820;28;20120;-77
2023/06/11 14:36:58;;;;;;;4.22;3.83;;;;;;;;;;4990836;28;20471;-78